createdAt,value
2019-03-11T00:00:58.444Z,4.40
2019-03-11T00:07:27.598Z,4.30
2019-03-11T00:10:28.490Z,4.30
2019-03-11T00:13:29.478Z,4.30
2019-03-11T00:16:31.181Z,4.30
2019-03-11T00:19:33.079Z,4.30
2019-03-11T00:22:22.614Z,4.30
2019-03-11T00:25:31.180Z,4.30
2019-03-11T00:28:32.439Z,4.20
2019-03-11T00:31:33.810Z,4.30
2019-03-11T00:34:23.427Z,4.30
2019-03-11T00:40:38.891Z,4.40
2019-03-11T00:43:40.837Z,4.40
2019-03-11T00:46:42.156Z,4.40
2019-03-11T00:49:31.488Z,4.50
2019-03-11T00:52:40.456Z,4.50
2019-03-11T00:55:41.835Z,4.60
2019-03-11T00:58:43.068Z,4.60
2019-03-11T01:01:44.319Z,4.60
2019-03-11T01:04:51.936Z,4.60
2019-03-11T01:07:54.179Z,4.60
2019-03-11T01:10:56.136Z,4.70
2019-03-11T01:13:57.489Z,4.80
2019-03-11T01:16:58.944Z,4.90
2019-03-11T01:19:48.661Z,4.90
2019-03-11T01:22:57.577Z,4.90
2019-03-11T01:25:58.676Z,4.90
2019-03-11T01:29:00.140Z,4.80
2019-03-11T01:32:01.759Z,4.50
2019-03-11T01:38:10.835Z,4.30
2019-03-11T01:41:12.446Z,4.30
2019-03-11T01:44:13.915Z,4.20
2019-03-11T01:47:15.150Z,4.10
2019-03-11T01:50:16.566Z,4.00
2019-03-11T01:53:17.967Z,3.90
2019-03-11T01:56:19.255Z,4.00
2019-03-11T01:59:20.997Z,4.10
2019-03-11T02:02:22.615Z,4.20
2019-03-11T02:08:31.361Z,4.40
2019-03-11T02:11:32.678Z,4.40
2019-03-11T02:14:33.907Z,4.30
2019-03-11T02:17:35.838Z,4.30
2019-03-11T02:20:37.687Z,4.30
2019-03-11T02:23:39.239Z,4.30
2019-03-11T02:26:40.460Z,4.30
2019-03-11T02:29:41.495Z,4.30
2019-03-11T02:32:42.836Z,4.20
2019-03-11T02:38:51.093Z,4.20
2019-03-11T02:41:52.463Z,4.20
2019-03-11T02:44:53.631Z,4.20
2019-03-11T02:47:43.452Z,4.20
2019-03-11T02:50:52.355Z,4.20
2019-03-11T02:53:56.296Z,4.20
2019-03-11T02:56:57.417Z,4.20
2019-03-11T02:59:59.167Z,4.20
2019-03-11T03:09:14.512Z,4.20
2019-03-11T03:12:16.161Z,4.20
2019-03-11T03:15:18.091Z,4.20
2019-03-11T03:18:19.508Z,4.20
2019-03-11T03:21:21.355Z,4.20
2019-03-11T03:24:22.221Z,4.20
2019-03-11T03:27:23.807Z,4.20
2019-03-11T03:30:25.321Z,4.30
2019-03-11T03:33:13.911Z,4.30
2019-03-11T03:39:37.510Z,4.30
2019-03-11T03:42:38.425Z,4.30
2019-03-11T03:45:39.930Z,4.40
2019-03-11T03:48:41.111Z,4.40
2019-03-11T03:51:42.429Z,4.50
2019-03-11T03:54:43.524Z,4.50
2019-03-11T03:57:44.537Z,4.50
2019-03-11T04:00:45.712Z,4.50
2019-03-11T04:03:47.354Z,4.50
2019-03-11T04:09:56.044Z,4.50
2019-03-11T04:12:57.464Z,4.50
2019-03-11T04:15:59.862Z,4.50
2019-03-11T04:19:08.631Z,4.50
2019-03-11T04:22:09.908Z,4.50
2019-03-11T04:25:11.698Z,4.60
2019-03-11T04:28:13.119Z,4.60
2019-03-11T04:31:13.455Z,4.60
2019-03-11T04:34:13.676Z,4.60
2019-03-11T04:40:21.823Z,4.70
2019-03-11T04:43:23.661Z,4.70
2019-03-11T04:46:25.041Z,4.70
2019-03-11T04:49:25.973Z,4.70
2019-03-11T04:52:27.551Z,4.70
2019-03-11T04:55:28.855Z,4.80
2019-03-11T04:58:30.081Z,4.90
2019-03-11T05:01:31.032Z,4.90
2019-03-11T05:04:32.152Z,4.80
2019-03-11T05:10:40.575Z,4.70
2019-03-11T05:13:41.613Z,4.70
2019-03-11T05:16:42.619Z,4.60
2019-03-11T05:19:43.804Z,4.50
2019-03-11T05:22:44.855Z,4.50
2019-03-11T05:25:46.007Z,4.40
2019-03-11T05:28:49.349Z,4.40
2019-03-11T05:31:50.255Z,4.40
2019-03-11T05:34:52.089Z,4.30
2019-03-11T05:37:59.063Z,4.40
2019-03-11T05:41:01.175Z,4.30
2019-03-11T05:44:02.392Z,4.30
2019-03-11T05:47:03.217Z,4.30
2019-03-11T05:53:07.689Z,4.20
2019-03-11T05:56:16.568Z,4.20
2019-03-11T05:59:18.071Z,4.30
2019-03-11T06:02:19.599Z,4.40
2019-03-11T06:05:09.369Z,4.30
2019-03-11T06:11:46.915Z,4.30
2019-03-11T06:14:47.570Z,4.30
2019-03-11T06:17:49.389Z,4.30
2019-03-11T06:21:12.739Z,4.30
2019-03-11T06:24:14.739Z,4.30
2019-03-11T06:27:16.635Z,4.20
2019-03-11T06:30:17.629Z,4.00
2019-03-11T06:33:18.750Z,3.90
2019-03-11T06:36:20.651Z,3.80
2019-03-11T06:42:17.503Z,3.80
2019-03-11T06:45:07.244Z,3.70
2019-03-11T06:48:15.897Z,3.70
2019-03-11T06:51:16.936Z,3.70
2019-03-11T06:57:22.359Z,3.60
2019-03-11T07:03:46.698Z,3.50
2019-03-11T07:06:48.253Z,3.50
2019-03-11T07:09:55.306Z,3.60
2019-03-11T07:12:57.428Z,3.60
2019-03-11T07:16:04.923Z,3.60
2019-03-11T07:19:06.551Z,3.60
2019-03-11T07:22:08.412Z,3.60
2019-03-11T07:25:10.233Z,3.10
2019-03-11T07:28:11.551Z,2.70
2019-03-11T07:31:13.334Z,2.50
2019-03-11T07:34:15.027Z,2.50
2019-03-11T07:37:16.284Z,2.60
2019-03-11T07:43:24.778Z,2.70
2019-03-11T07:46:14.500Z,2.80
2019-03-11T07:49:23.334Z,2.90
2019-03-11T07:52:24.539Z,3.20
2019-03-11T07:55:26.683Z,3.20
2019-03-11T07:58:27.791Z,3.20
2019-03-11T08:01:29.796Z,3.30
2019-03-11T08:04:23.990Z,3.40
2019-03-11T08:07:32.516Z,3.40
2019-03-11T08:10:22.119Z,3.10
2019-03-11T08:16:50.919Z,3.00
2019-03-11T08:19:52.440Z,3.00
2019-03-11T08:22:53.698Z,3.20
2019-03-11T08:25:55.059Z,3.30
2019-03-11T08:28:44.930Z,3.40
2019-03-11T08:35:00.603Z,3.40
2019-03-11T08:38:04.896Z,3.60
2019-03-11T08:44:12.958Z,3.70
2019-03-11T08:47:14.598Z,3.70
2019-03-11T08:50:16.233Z,3.90
2019-03-11T08:53:17.635Z,3.80
2019-03-11T08:56:19.038Z,3.70
2019-03-11T08:59:20.913Z,3.50
2019-03-11T09:02:21.959Z,3.60
2019-03-11T09:05:23.455Z,3.50
2019-03-11T09:08:25.022Z,3.50
2019-03-11T09:11:14.628Z,3.40
2019-03-11T09:17:22.400Z,3.30
2019-03-11T09:23:57.059Z,3.40
2019-03-11T09:26:58.296Z,3.60
2019-03-11T09:30:00.274Z,4.20
2019-03-11T09:33:01.275Z,5.10
2019-03-11T09:36:02.720Z,6.10
2019-03-11T09:39:05.379Z,6.80
2019-03-11T09:42:06.991Z,7.80
2019-03-11T09:45:08.072Z,9.90
2019-03-11T09:48:09.595Z,10.20
2019-03-11T09:51:10.863Z,10.10
2019-03-11T09:56:57.820Z,12.40
2019-03-11T09:59:59.410Z,12.90
2019-03-11T10:03:00.598Z,11.80
2019-03-11T10:06:02.026Z,11.00
2019-03-11T10:09:03.994Z,11.20
2019-03-11T10:11:53.808Z,11.10
2019-03-11T10:15:02.669Z,10.00
2019-03-11T10:18:04.426Z,10.70
2019-03-11T10:21:05.791Z,9.80
2019-03-11T10:24:07.650Z,8.10
2019-03-11T10:27:08.583Z,7.00
2019-03-11T10:30:09.900Z,6.30
2019-03-11T10:33:11.034Z,6.10
2019-03-11T10:36:12.647Z,6.20
2019-03-11T10:39:13.840Z,7.30
2019-03-11T10:42:21.695Z,9.00
2019-03-11T10:45:31.014Z,9.40
2019-03-11T10:48:36.793Z,8.00
2019-03-11T10:51:29.848Z,7.00
2019-03-11T10:54:31.011Z,5.90
2019-03-11T10:57:32.425Z,6.00
2019-03-11T11:00:33.868Z,7.80
2019-03-11T11:03:34.823Z,9.20
2019-03-11T11:06:36.240Z,10.10
2019-03-11T11:09:37.619Z,10.40
2019-03-11T11:18:53.255Z,10.50
2019-03-11T11:21:55.156Z,9.70
2019-03-11T11:24:56.575Z,9.10
2019-03-11T11:27:58.348Z,9.00
2019-03-11T11:30:59.317Z,9.30
2019-03-11T11:37:03.676Z,8.50
2019-03-11T11:46:37.317Z,8.50
2019-03-11T11:49:37.166Z,7.60
2019-03-11T11:56:06.299Z,9.50
2019-03-11T11:59:07.613Z,9.50
2019-03-11T12:02:03.630Z,8.80
2019-03-11T12:05:09.084Z,8.30
2019-03-11T12:08:10.828Z,8.40
2019-03-11T12:11:12.080Z,8.80
2019-03-11T12:17:08.308Z,9.50
2019-03-11T12:23:46.511Z,9.80
2019-03-11T12:26:46.869Z,10.50
2019-03-11T12:29:48.812Z,9.80
2019-03-11T12:32:50.084Z,9.60
2019-03-11T12:35:52.107Z,9.20
2019-03-11T12:38:53.387Z,7.90
2019-03-11T12:41:55.646Z,5.80
2019-03-11T12:44:45.472Z,4.40
2019-03-11T12:47:54.642Z,4.10
2019-03-11T12:50:56.123Z,4.00
2019-03-11T12:53:59.208Z,3.90
2019-03-11T12:57:00.599Z,4.20
2019-03-11T13:00:02.000Z,4.70
2019-03-11T13:02:51.890Z,5.20
2019-03-11T13:05:41.601Z,5.60
2019-03-11T13:08:31.933Z,5.80
2019-03-11T13:15:04.588Z,6.80
2019-03-11T13:18:06.429Z,6.80
2019-03-11T13:21:10.870Z,6.90
2019-03-11T13:24:12.394Z,7.70
2019-03-11T13:27:14.046Z,8.90
2019-03-11T13:30:15.454Z,8.60
2019-03-11T13:33:16.514Z,8.30
2019-03-11T13:39:10.543Z,7.20
2019-03-11T13:42:19.416Z,6.40
2019-03-11T13:45:20.789Z,5.00
2019-03-11T13:48:22.355Z,4.80
2019-03-11T13:51:24.087Z,6.10
2019-03-11T13:54:25.057Z,7.40
2019-03-11T13:57:26.922Z,7.90
2019-03-11T14:00:28.153Z,8.60
2019-03-11T14:03:29.649Z,7.60
2019-03-11T14:06:30.829Z,7.50
2019-03-11T14:09:31.857Z,7.30
2019-03-11T14:12:33.057Z,6.90
2019-03-11T14:15:34.708Z,6.30
2019-03-11T14:18:35.788Z,6.80
2019-03-11T14:21:37.215Z,7.50
2019-03-11T14:24:37.151Z,7.60
2019-03-11T14:27:45.959Z,7.60
2019-03-11T14:30:47.723Z,7.60
2019-03-11T14:33:48.853Z,7.60
2019-03-11T14:36:50.096Z,7.10
2019-03-11T14:39:51.954Z,6.40
2019-03-11T14:42:53.311Z,5.50
2019-03-11T14:45:54.779Z,5.40
2019-03-11T14:48:56.512Z,4.90
2019-03-11T14:51:57.965Z,4.30
2019-03-11T14:54:59.713Z,4.30
2019-03-11T14:58:01.204Z,4.60
2019-03-11T15:01:02.366Z,4.90
2019-03-11T15:04:04.347Z,5.20
2019-03-11T15:07:05.988Z,5.30
2019-03-11T15:10:07.396Z,5.20
2019-03-11T15:13:14.237Z,4.90
2019-03-11T15:16:21.444Z,5.00
2019-03-11T15:19:22.570Z,5.00
2019-03-11T15:22:23.568Z,5.00
2019-03-11T15:25:25.463Z,5.00
2019-03-11T15:28:26.694Z,5.10
2019-03-11T15:31:28.226Z,5.10
2019-03-11T15:34:30.365Z,5.20
2019-03-11T15:37:32.332Z,5.10
2019-03-11T15:40:33.536Z,5.00
2019-03-11T15:43:35.267Z,4.90
2019-03-11T15:46:39.448Z,5.00
2019-03-11T15:49:40.457Z,4.90
2019-03-11T15:52:41.694Z,5.00
2019-03-11T15:55:44.639Z,5.00
2019-03-11T15:58:46.683Z,5.20
2019-03-11T16:01:50.423Z,5.70
2019-03-11T16:04:54.887Z,5.60
2019-03-11T16:11:00.766Z,5.10
2019-03-11T16:23:49.555Z,5.00
2019-03-11T16:26:51.639Z,5.00
2019-03-11T16:29:53.403Z,5.00
2019-03-11T16:33:00.373Z,4.90
2019-03-11T16:36:00.433Z,4.80
2019-03-11T16:39:01.397Z,4.90
2019-03-11T16:42:02.761Z,4.80
2019-03-11T16:45:03.908Z,4.90
2019-03-11T16:48:11.039Z,4.90
2019-03-11T16:51:13.152Z,4.80
2019-03-11T16:54:14.568Z,4.60
2019-03-11T16:57:15.575Z,4.50
2019-03-11T17:00:21.203Z,4.40
2019-03-11T17:03:23.024Z,4.00
2019-03-11T17:06:23.173Z,4.00
2019-03-11T17:09:31.906Z,4.00
2019-03-11T17:12:33.549Z,3.90
2019-03-11T17:15:34.786Z,4.10
2019-03-11T17:18:42.303Z,4.10
2019-03-11T17:21:43.811Z,4.10
2019-03-11T17:24:45.603Z,4.10
2019-03-11T17:27:46.896Z,4.20
2019-03-11T17:30:48.845Z,4.20
2019-03-11T17:33:49.894Z,4.20
2019-03-11T17:43:12.056Z,4.30
2019-03-11T17:46:12.240Z,4.30
2019-03-11T17:52:21.236Z,4.30
2019-03-11T17:55:23.060Z,4.30
2019-03-11T17:58:24.356Z,4.30
2019-03-11T18:01:26.204Z,4.30
2019-03-11T18:04:28.109Z,4.30
2019-03-11T18:07:29.042Z,4.20
2019-03-11T18:10:30.592Z,4.00
2019-03-11T18:13:33.410Z,3.70
2019-03-11T18:16:34.652Z,3.40
2019-03-11T18:19:42.571Z,3.30
2019-03-11T18:22:44.698Z,3.20
2019-03-11T18:25:45.935Z,3.20
2019-03-11T18:28:47.068Z,3.20
2019-03-11T18:31:48.243Z,3.10
2019-03-11T18:34:49.384Z,3.10
2019-03-11T18:37:50.328Z,3.10
2019-03-11T18:40:54.263Z,3.10
2019-03-11T18:43:55.327Z,3.20
2019-03-11T18:46:57.455Z,3.20
2019-03-11T18:53:12.455Z,3.30
2019-03-11T18:56:14.522Z,3.30
2019-03-11T18:59:16.744Z,3.30
2019-03-11T19:02:18.096Z,3.40
2019-03-11T19:05:19.448Z,3.40
2019-03-11T19:08:21.410Z,3.40
2019-03-11T19:11:22.860Z,3.50
2019-03-11T19:14:24.152Z,3.60
2019-03-11T19:17:25.607Z,3.60
2019-03-11T19:23:34.301Z,3.70
2019-03-11T19:26:35.761Z,3.80
2019-03-11T19:29:37.391Z,3.80
2019-03-11T19:32:37.964Z,3.80
2019-03-11T19:35:47.015Z,3.80
2019-03-11T19:38:48.300Z,3.90
2019-03-11T19:41:50.327Z,3.90
2019-03-11T19:44:51.691Z,3.90
2019-03-11T19:47:53.707Z,4.00
2019-03-11T19:54:02.384Z,4.00
2019-03-11T19:57:04.733Z,4.00
2019-03-11T20:00:06.076Z,4.10
2019-03-11T20:02:56.107Z,4.10
2019-03-11T20:06:05.014Z,4.10
2019-03-11T20:09:06.542Z,4.10
2019-03-11T20:12:08.780Z,4.20
2019-03-11T20:15:13.980Z,4.20
2019-03-11T20:18:15.999Z,4.20
2019-03-11T20:24:25.886Z,4.30
2019-03-11T20:27:27.898Z,4.20
2019-03-11T20:30:29.252Z,4.30
2019-03-11T20:33:30.622Z,4.30
2019-03-11T20:36:32.457Z,4.30
2019-03-11T20:39:34.485Z,4.40
2019-03-11T20:42:36.330Z,4.40
2019-03-11T20:45:37.488Z,4.40
2019-03-11T20:48:39.372Z,4.50
2019-03-11T20:51:47.338Z,4.50
2019-03-11T20:58:02.224Z,4.70
2019-03-11T21:01:04.137Z,4.70
2019-03-11T21:07:05.042Z,4.70
2019-03-11T21:10:06.572Z,4.70
2019-03-11T21:13:08.102Z,4.70
2019-03-11T21:16:10.039Z,5.00
2019-03-11T21:18:59.789Z,4.90
2019-03-11T21:25:29.005Z,4.60
2019-03-11T21:28:30.163Z,4.40
2019-03-11T21:31:32.048Z,4.20
2019-03-11T21:34:21.794Z,4.20
2019-03-11T21:37:30.771Z,4.10
2019-03-11T21:40:25.362Z,4.10
2019-03-11T21:43:26.967Z,4.10
2019-03-11T21:46:28.337Z,4.10
2019-03-11T21:49:30.147Z,4.00
2019-03-11T21:55:38.672Z,4.10
2019-03-11T21:58:39.836Z,4.10
2019-03-11T22:01:41.433Z,4.00
2019-03-11T22:04:42.764Z,3.90
2019-03-11T22:07:43.923Z,3.80
2019-03-11T22:10:44.723Z,3.80
2019-03-11T22:13:46.023Z,3.70
2019-03-11T22:16:47.298Z,3.70
2019-03-11T22:19:48.996Z,3.60
2019-03-11T22:28:59.826Z,3.80
2019-03-11T22:31:49.862Z,3.90
2019-03-11T22:34:51.508Z,4.10
2019-03-11T22:37:53.064Z,4.10
2019-03-11T22:40:54.316Z,4.20
2019-03-11T22:43:55.380Z,4.20
2019-03-11T22:46:56.624Z,4.20
2019-03-11T22:50:03.176Z,4.30
2019-03-11T22:56:11.818Z,4.30
2019-03-11T22:59:13.578Z,4.30
2019-03-11T23:02:15.038Z,4.30
2019-03-11T23:05:16.370Z,4.30
2019-03-11T23:08:18.225Z,4.30
2019-03-11T23:11:19.175Z,4.30
2019-03-11T23:14:08.986Z,4.30
2019-03-11T23:17:17.866Z,4.20
2019-03-11T23:20:19.106Z,4.20
2019-03-11T23:26:27.884Z,4.00
2019-03-11T23:29:29.724Z,4.00
2019-03-11T23:32:31.228Z,4.00
2019-03-11T23:35:32.750Z,4.00
2019-03-11T23:38:33.720Z,4.00
2019-03-11T23:41:34.580Z,3.90
2019-03-11T23:44:35.669Z,4.00
2019-03-11T23:47:37.475Z,4.00
2019-03-11T23:50:45.162Z,4.10
2019-03-11T23:56:53.380Z,4.10
2019-03-11T23:59:54.415Z,4.10
